Hauptseite
METAR-TAF:

METAR-TAF

Flughäfen :

Flughafen Republic

Farmingdale, New York, Vereinigte Staaten

Breite: 40-44-03N, Länge: 073-25-01W, Höhe: 24 m

Beobachtung

Neuester Wetterbericht von vor 27 Minuten, um 02:53 UTC
Wind 10 kt aus Nordwest, Böen bis zu 19 kt
Temperatur 3°C
Luftfeuchtigkeit 44%
Luftdruck 1020 hPa
Sichtweite: 16.1 km
Himmel klar

METAR: KFRG 160253Z AUTO 32010G19KT 10SM CLR 03/M08 A3011 RMK AO2 SLP195 T00331078 51028

Zeit: 22:20 (03:20 UTC)


TAF: fehlend

Wetterbeobachtungen und Prognosen von mehr als 4000 Flughäfen (METAR und TAF Bericht).

Die verfügbaren Stationen werden durch gelbe und rote Markierungen auf der Karte dargestellt.

Führen Sie die Maus auf sie, um den Namen der Station zu sehen.

Darauf klicken, um die Beobachtung von Wetterbeobachtungen und Prognosen zu sehen.

Um die Karte zu ändern : klicken Sie auf den grünen Tasten mit einem schwarzen Kreuz Zum Vergrößern, auf den grünen Button mit einem Gedankenstrich zu verkleinern, oder auf die grünen Pfeile für benachbarte Karten.


METAR-TAF: